sensor_id;sensor_type;location;lat;lon;timestamp;pressure;altitude;pressure_sealevel;temperature;humidity
69909;BME280;57190;47.918;8.112;2022-12-29T00:01:48;90539.88;;;7.49;59.91
69909;BME280;57190;47.918;8.112;2022-12-29T00:04:15;90525.53;;;7.50;59.86
69909;BME280;57190;47.918;8.112;2022-12-29T00:06:42;90537.22;;;7.54;59.77
69909;BME280;57190;47.918;8.112;2022-12-29T00:09:08;90522.84;;;7.45;60.21
69909;BME280;57190;47.918;8.112;2022-12-29T00:11:33;90531.63;;;7.46;59.98
69909;BME280;57190;47.918;8.112;2022-12-29T00:13:59;90528.13;;;7.40;60.28
69909;BME280;57190;47.918;8.112;2022-12-29T00:16:44;90531.44;;;7.58;59.18
69909;BME280;57190;47.918;8.112;2022-12-29T00:19:11;90527.66;;;7.48;59.45
69909;BME280;57190;47.918;8.112;2022-12-29T00:21:57;90528.69;;;7.47;59.56
69909;BME280;57190;47.918;8.112;2022-12-29T00:24:43;90516.19;;;7.43;59.84
69909;BME280;57190;47.918;8.112;2022-12-29T00:27:28;90521.25;;;7.44;59.91
69909;BME280;57190;47.918;8.112;2022-12-29T00:30:20;90505.84;;;7.41;59.83
69909;BME280;57190;47.918;8.112;2022-12-29T00:33:32;90501.91;;;7.49;58.65
69909;BME280;57190;47.918;8.112;2022-12-29T00:36:28;90501.09;;;7.48;59.10
69909;BME280;57190;47.918;8.112;2022-12-29T00:39:16;90505.84;;;7.41;59.55
69909;BME280;57190;47.918;8.112;2022-12-29T00:42:08;90517.22;;;7.36;59.60
69909;BME280;57190;47.918;8.112;2022-12-29T00:45:04;90498.19;;;7.45;58.47
69909;BME280;57190;47.918;8.112;2022-12-29T00:47:30;90500.56;;;7.51;58.13
69909;BME280;57190;47.918;8.112;2022-12-29T00:49:55;90485.97;;;7.49;58.52
69909;BME280;57190;47.918;8.112;2022-12-29T00:52:21;90485.19;;;7.48;58.26
69909;BME280;57190;47.918;8.112;2022-12-29T00:54:46;90486.75;;;7.44;58.85
69909;BME280;57190;47.918;8.112;2022-12-29T00:57:12;90491.84;;;7.51;57.51
69909;BME280;57190;47.918;8.112;2022-12-29T00:59:39;90481.22;;;7.56;57.52
69909;BME280;57190;47.918;8.112;2022-12-29T01:02:04;90495.31;;;7.57;57.31
69909;BME280;57190;47.918;8.112;2022-12-29T01:04:31;90479.16;;;7.63;56.70
69909;BME280;57190;47.918;8.112;2022-12-29T01:06:57;90472.06;;;7.79;56.18
69909;BME280;57190;47.918;8.112;2022-12-29T01:09:22;90465.63;;;7.70;56.71
69909;BME280;57190;47.918;8.112;2022-12-29T01:12:07;90474.09;;;7.62;56.92
69909;BME280;57190;47.918;8.112;2022-12-29T01:14:33;90481.28;;;7.61;56.70
69909;BME280;57190;47.918;8.112;2022-12-29T01:16:59;90482.03;;;7.57;57.29
69909;BME280;57190;47.918;8.112;2022-12-29T01:19:25;90487.34;;;7.57;57.03
69909;BME280;57190;47.918;8.112;2022-12-29T01:21:50;90488.75;;;7.69;55.82
69909;BME280;57190;47.918;8.112;2022-12-29T01:24:17;90490.31;;;7.65;56.86
69909;BME280;57190;47.918;8.112;2022-12-29T01:26:43;90497.97;;;7.57;56.58
69909;BME280;57190;47.918;8.112;2022-12-29T01:29:09;90505.41;;;7.60;56.59
69909;BME280;57190;47.918;8.112;2022-12-29T01:31:35;90499.59;;;7.63;56.07
69909;BME280;57190;47.918;8.112;2022-12-29T01:34:01;90492.72;;;7.67;56.46
69909;BME280;57190;47.918;8.112;2022-12-29T01:36:27;90481.00;;;7.58;57.09
69909;BME280;57190;47.918;8.112;2022-12-29T01:38:52;90490.28;;;7.55;57.06
69909;BME280;57190;47.918;8.112;2022-12-29T01:41:18;90476.19;;;7.60;56.23
69909;BME280;57190;47.918;8.112;2022-12-29T01:43:46;90493.44;;;7.57;56.77
69909;BME280;57190;47.918;8.112;2022-12-29T01:46:42;90493.16;;;7.53;56.86
69909;BME280;57190;47.918;8.112;2022-12-29T01:49:20;90485.69;;;7.45;57.19
69909;BME280;57190;47.918;8.112;2022-12-29T01:54:40;90490.56;;;7.59;56.83
69909;BME280;57190;47.918;8.112;2022-12-29T01:57:16;90493.66;;;7.45;57.33
69909;BME280;57190;47.918;8.112;2022-12-29T02:00:04;90493.72;;;7.55;56.75
69909;BME280;57190;47.918;8.112;2022-12-29T02:02:31;90493.22;;;7.59;56.79
69909;BME280;57190;47.918;8.112;2022-12-29T02:04:58;90493.72;;;7.55;57.06
69909;BME280;57190;47.918;8.112;2022-12-29T02:07:26;90496.88;;;7.52;57.45
69909;BME280;57190;47.918;8.112;2022-12-29T02:09:53;90506.44;;;7.53;57.25
69909;BME280;57190;47.918;8.112;2022-12-29T02:12:21;90487.78;;;7.43;57.68
69909;BME280;57190;47.918;8.112;2022-12-29T02:14:50;90489.41;;;7.44;57.71
69909;BME280;57190;47.918;8.112;2022-12-29T02:17:48;90501.09;;;7.48;58.04
69909;BME280;57190;47.918;8.112;2022-12-29T02:26:34;90474.72;;;7.31;58.88
69909;BME280;57190;47.918;8.112;2022-12-29T02:32:07;90465.38;;;7.18;59.58
69909;BME280;57190;47.918;8.112;2022-12-29T02:45:28;90459.28;;;7.23;60.17
69909;BME280;57190;47.918;8.112;2022-12-29T02:48:09;90460.38;;;7.27;60.00
69909;BME280;57190;47.918;8.112;2022-12-29T02:50:49;90483.44;;;7.27;60.01
69909;BME280;57190;47.918;8.112;2022-12-29T02:53:19;90475.31;;;7.38;59.80
69909;BME280;57190;47.918;8.112;2022-12-29T02:56:05;90476.63;;;7.36;60.20
69909;BME280;57190;47.918;8.112;2022-12-29T02:58:31;90467.78;;;7.20;61.05
69909;BME280;57190;47.918;8.112;2022-12-29T03:01:23;90457.94;;;7.15;61.33
69909;BME280;57190;47.918;8.112;2022-12-29T03:06:54;90475.13;;;7.07;61.48
69909;BME280;57190;47.918;8.112;2022-12-29T03:10:29;90480.13;;;7.04;61.70
69909;BME280;57190;47.918;8.112;2022-12-29T03:15:41;90470.81;;;6.96;62.28
69909;BME280;57190;47.918;8.112;2022-12-29T03:21:30;90488.75;;;6.89;62.65
69909;BME280;57190;47.918;8.112;2022-12-29T03:24:17;90493.25;;;6.83;62.72
69909;BME280;57190;47.918;8.112;2022-12-29T03:26:45;90485.78;;;6.80;63.11
69909;BME280;57190;47.918;8.112;2022-12-29T03:29:13;90499.06;;;6.80;62.21
69909;BME280;57190;47.918;8.112;2022-12-29T03:31:42;90491.88;;;6.81;63.53
69909;BME280;57190;47.918;8.112;2022-12-29T03:34:08;90472.81;;;6.79;63.13
69909;BME280;57190;47.918;8.112;2022-12-29T03:36:58;90485.06;;;6.90;62.41
69909;BME280;57190;47.918;8.112;2022-12-29T03:39:26;90472.34;;;6.87;63.02
69909;BME280;57190;47.918;8.112;2022-12-29T03:42:09;90473.41;;;6.91;62.71
69909;BME280;57190;47.918;8.112;2022-12-29T03:44:42;90471.28;;;6.88;62.90
69909;BME280;57190;47.918;8.112;2022-12-29T03:47:10;90467.34;;;6.96;62.56
69909;BME280;57190;47.918;8.112;2022-12-29T03:49:37;90455.66;;;6.91;63.05
69909;BME280;57190;47.918;8.112;2022-12-29T03:52:03;90456.00;;;7.05;62.60
69909;BME280;57190;47.918;8.112;2022-12-29T03:54:30;90451.78;;;7.04;62.97
69909;BME280;57190;47.918;8.112;2022-12-29T03:56:55;90461.47;;;6.88;63.71
69909;BME280;57190;47.918;8.112;2022-12-29T03:59:21;90462.72;;;6.81;63.65
69909;BME280;57190;47.918;8.112;2022-12-29T04:01:46;90456.38;;;6.82;64.13
69909;BME280;57190;47.918;8.112;2022-12-29T04:04:12;90462.91;;;6.69;64.81
69909;BME280;57190;47.918;8.112;2022-12-29T04:06:38;90458.81;;;6.56;65.20
69909;BME280;57190;47.918;8.112;2022-12-29T04:09:04;90463.38;;;6.60;64.75
69909;BME280;57190;47.918;8.112;2022-12-29T04:11:30;90449.22;;;6.82;64.35
69909;BME280;57190;47.918;8.112;2022-12-29T04:13:55;90458.25;;;6.81;64.35
69909;BME280;57190;47.918;8.112;2022-12-29T04:16:21;90455.13;;;6.89;64.20
69909;BME280;57190;47.918;8.112;2022-12-29T04:18:46;90451.66;;;6.89;64.36
69909;BME280;57190;47.918;8.112;2022-12-29T04:21:12;90467.59;;;6.94;64.61
69909;BME280;57190;47.918;8.112;2022-12-29T04:23:38;90477.69;;;6.97;64.67
69909;BME280;57190;47.918;8.112;2022-12-29T04:26:04;90471.56;;;6.91;64.73
69909;BME280;57190;47.918;8.112;2022-12-29T04:28:32;90468.19;;;7.01;64.46
69909;BME280;57190;47.918;8.112;2022-12-29T04:30:57;90473.50;;;7.01;64.59
69909;BME280;57190;47.918;8.112;2022-12-29T04:33:23;90474.81;;;6.99;64.90
69909;BME280;57190;47.918;8.112;2022-12-29T04:35:49;90484.09;;;7.01;64.98
69909;BME280;57190;47.918;8.112;2022-12-29T04:38:15;90461.84;;;7.07;64.63
69909;BME280;57190;47.918;8.112;2022-12-29T04:40:42;90466.88;;;7.04;65.41
69909;BME280;57190;47.918;8.112;2022-12-29T04:43:09;90465.56;;;7.06;65.60
69909;BME280;57190;47.918;8.112;2022-12-29T04:45:35;90476.16;;;7.06;66.48
69909;BME280;57190;47.918;8.112;2022-12-29T04:48:01;90478.00;;;7.01;66.63
69909;BME280;57190;47.918;8.112;2022-12-29T04:50:26;90482.75;;;6.99;67.72
69909;BME280;57190;47.918;8.112;2022-12-29T04:52:52;90479.00;;;6.95;67.43
69909;BME280;57190;47.918;8.112;2022-12-29T04:55:17;90483.53;;;6.94;67.91
69909;BME280;57190;47.918;8.112;2022-12-29T04:57:42;90487.78;;;6.95;67.53
69909;BME280;57190;47.918;8.112;2022-12-29T05:00:09;90481.94;;;6.98;66.96
69909;BME280;57190;47.918;8.112;2022-12-29T05:02:35;90483.25;;;6.96;67.46
69909;BME280;57190;47.918;8.112;2022-12-29T05:05:01;90477.69;;;6.97;67.50
69909;BME280;57190;47.918;8.112;2022-12-29T05:07:27;90476.72;;;7.08;66.86
69909;BME280;57190;47.918;8.112;2022-12-29T05:09:52;90454.22;;;7.16;66.01
69909;BME280;57190;47.918;8.112;2022-12-29T05:12:17;90473.91;;;7.26;66.10
69909;BME280;57190;47.918;8.112;2022-12-29T05:14:43;90457.41;;;7.18;66.59
69909;BME280;57190;47.918;8.112;2022-12-29T05:17:08;90468.00;;;7.13;66.41
69909;BME280;57190;47.918;8.112;2022-12-29T05:19:34;90457.41;;;7.18;65.93
69909;BME280;57190;47.918;8.112;2022-12-29T05:21:59;90474.72;;;7.26;65.02
69909;BME280;57190;47.918;8.112;2022-12-29T05:24:25;90471.31;;;7.36;65.08
69909;BME280;57190;47.918;8.112;2022-12-29T05:26:50;90468.09;;;7.29;65.41
69909;BME280;57190;47.918;8.112;2022-12-29T05:29:16;90474.72;;;7.26;65.16
69909;BME280;57190;47.918;8.112;2022-12-29T05:31:41;90468.16;;;7.39;64.74
69909;BME280;57190;47.918;8.112;2022-12-29T05:34:06;90471.34;;;7.41;64.00
69909;BME280;57190;47.918;8.112;2022-12-29T05:36:32;90479.56;;;7.39;64.63
69909;BME280;57190;47.918;8.112;2022-12-29T05:38:57;90460.75;;;7.51;64.23
69909;BME280;57190;47.918;8.112;2022-12-29T05:41:23;90481.97;;;7.46;64.73
69909;BME280;57190;47.918;8.112;2022-12-29T05:43:48;90472.94;;;7.42;64.39
69909;BME280;57190;47.918;8.112;2022-12-29T05:46:14;90478.22;;;7.37;64.45
69909;BME280;57190;47.918;8.112;2022-12-29T05:48:39;90472.13;;;7.42;64.53
69909;BME280;57190;47.918;8.112;2022-12-29T05:51:05;90474.78;;;7.42;65.21
69909;BME280;57190;47.918;8.112;2022-12-29T05:53:30;90480.66;;;7.44;65.72
69909;BME280;57190;47.918;8.112;2022-12-29T05:55:56;90471.66;;;7.50;64.99
69909;BME280;57190;47.918;8.112;2022-12-29T05:58:21;90482.47;;;7.38;66.17
69909;BME280;57190;47.918;8.112;2022-12-29T06:00:47;90482.47;;;7.38;65.86
69909;BME280;57190;47.918;8.112;2022-12-29T06:03:12;90472.31;;;7.24;66.91
69909;BME280;57190;47.918;8.112;2022-12-29T06:05:38;90467.94;;;7.46;65.81
69909;BME280;57190;47.918;8.112;2022-12-29T06:08:03;90467.84;;;7.30;66.18
69909;BME280;57190;47.918;8.112;2022-12-29T06:10:29;90468.34;;;7.27;65.70
69909;BME280;57190;47.918;8.112;2022-12-29T06:12:54;90466.72;;;7.21;66.18
69909;BME280;57190;47.918;8.112;2022-12-29T06:15:20;90476.25;;;7.17;66.23
69909;BME280;57190;47.918;8.112;2022-12-29T06:17:45;90475.22;;;7.23;65.08
69909;BME280;57190;47.918;8.112;2022-12-29T06:20:11;90477.66;;;7.30;65.02
69909;BME280;57190;47.918;8.112;2022-12-29T06:22:37;90475.53;;;7.32;64.02
69909;BME280;57190;47.918;8.112;2022-12-29T06:25:03;90476.38;;;7.37;64.20
69909;BME280;57190;47.918;8.112;2022-12-29T06:27:28;90482.19;;;7.34;64.64
69909;BME280;57190;47.918;8.112;2022-12-29T06:29:54;90468.94;;;7.39;63.66
69909;BME280;57190;47.918;8.112;2022-12-29T06:32:20;90469.97;;;7.33;64.26
69909;BME280;57190;47.918;8.112;2022-12-29T06:34:45;90464.94;;;7.32;63.71
69909;BME280;57190;47.918;8.112;2022-12-29T06:37:11;90469.41;;;7.26;63.53
69909;BME280;57190;47.918;8.112;2022-12-29T06:39:36;90464.59;;;7.23;63.42
69909;BME280;57190;47.918;8.112;2022-12-29T06:42:02;90466.53;;;7.33;62.94
69909;BME280;57190;47.918;8.112;2022-12-29T06:44:28;90462.75;;;7.23;63.35
69909;BME280;57190;47.918;8.112;2022-12-29T06:46:53;90469.88;;;7.13;63.63
69909;BME280;57190;47.918;8.112;2022-12-29T06:49:19;90452.81;;;7.03;63.38
69909;BME280;57190;47.918;8.112;2022-12-29T06:51:44;90449.66;;;7.06;63.38
69909;BME280;57190;47.918;8.112;2022-12-29T06:54:10;90444.38;;;7.12;63.75
69909;BME280;57190;47.918;8.112;2022-12-29T06:56:36;90447.06;;;7.17;63.06
69909;BME280;57190;47.918;8.112;2022-12-29T06:59:01;90452.09;;;7.13;63.16
69909;BME280;57190;47.918;8.112;2022-12-29T07:01:27;90462.41;;;7.10;62.82
69909;BME280;57190;47.918;8.112;2022-12-29T07:03:52;90456.56;;;7.07;63.38
69909;BME280;57190;47.918;8.112;2022-12-29T07:06:18;90470.91;;;7.12;63.36
69909;BME280;57190;47.918;8.112;2022-12-29T07:08:43;90470.75;;;7.29;62.67
69909;BME280;57190;47.918;8.112;2022-12-29T07:11:10;90468.63;;;7.31;62.56
69909;BME280;57190;47.918;8.112;2022-12-29T07:13:36;90476.09;;;7.34;63.05
69909;BME280;57190;47.918;8.112;2022-12-29T07:16:08;90465.84;;;7.53;62.35
69909;BME280;57190;47.918;8.112;2022-12-29T07:18:34;90471.38;;;7.51;62.43
69909;BME280;57190;47.918;8.112;2022-12-29T07:21:00;90472.69;;;7.49;62.83
69909;BME280;57190;47.918;8.112;2022-12-29T07:23:26;90469.25;;;7.48;62.80
69909;BME280;57190;47.918;8.112;2022-12-29T07:26:02;90480.22;;;7.62;61.86
69909;BME280;57190;47.918;8.112;2022-12-29T07:28:28;90484.97;;;7.60;62.04
69909;BME280;57190;47.918;8.112;2022-12-29T07:30:54;90473.84;;;7.63;62.13
69909;BME280;57190;47.918;8.112;2022-12-29T07:33:19;90474.91;;;7.62;62.08
69909;BME280;57190;47.918;8.112;2022-12-29T07:35:45;90484.16;;;7.60;62.34
69909;BME280;57190;47.918;8.112;2022-12-29T07:38:11;90473.59;;;7.65;61.73
69909;BME280;57190;47.918;8.112;2022-12-29T07:40:36;90490.31;;;7.65;62.59
69909;BME280;57190;47.918;8.112;2022-12-29T07:43:01;90474.41;;;7.70;61.96
69909;BME280;57190;47.918;8.112;2022-12-29T07:45:27;90491.66;;;7.68;62.12
69909;BME280;57190;47.918;8.112;2022-12-29T07:47:52;90492.72;;;7.72;61.73
69909;BME280;57190;47.918;8.112;2022-12-29T07:50:18;90501.56;;;7.88;61.39
69909;BME280;57190;47.918;8.112;2022-12-29T07:52:43;90499.44;;;7.85;62.06
69909;BME280;57190;47.918;8.112;2022-12-29T07:55:10;90501.81;;;7.86;62.21
69909;BME280;57190;47.918;8.112;2022-12-29T07:57:35;90495.41;;;7.77;62.88
69909;BME280;57190;47.918;8.112;2022-12-29T08:00:02;90496.72;;;7.69;63.89
69909;BME280;57190;47.918;8.112;2022-12-29T08:02:28;90500.97;;;7.70;64.04
69909;BME280;57190;47.918;8.112;2022-12-29T08:04:54;90496.97;;;7.68;64.34
69909;BME280;57190;47.918;8.112;2022-12-29T08:07:20;90500.34;;;7.58;65.98
69909;BME280;57190;47.918;8.112;2022-12-29T08:09:46;90500.34;;;7.53;65.84
69909;BME280;57190;47.918;8.112;2022-12-29T08:12:12;90502.16;;;7.47;65.87
69909;BME280;57190;47.918;8.112;2022-12-29T08:14:37;90501.88;;;7.44;66.91
69909;BME280;57190;47.918;8.112;2022-12-29T08:17:03;90501.38;;;7.47;66.55
69909;BME280;57190;47.918;8.112;2022-12-29T08:19:28;90521.50;;;7.43;66.69
69909;BME280;57190;47.918;8.112;2022-12-29T08:21:54;90518.34;;;7.46;66.75
69909;BME280;57190;47.918;8.112;2022-12-29T08:24:19;90508.03;;;7.49;66.62
69909;BME280;57190;47.918;8.112;2022-12-29T08:26:45;90521.88;;;7.62;66.77
69909;BME280;57190;47.918;8.112;2022-12-29T08:29:10;90528.19;;;7.50;68.15
69909;BME280;57190;47.918;8.112;2022-12-29T08:31:36;90534.75;;;7.37;68.99
69909;BME280;57190;47.918;8.112;2022-12-29T08:34:01;90539.00;;;7.38;69.80
69909;BME280;57190;47.918;8.112;2022-12-29T08:36:28;90531.47;;;7.25;70.72
69909;BME280;57190;47.918;8.112;2022-12-29T08:38:54;90539.59;;;7.13;71.40
69909;BME280;57190;47.918;8.112;2022-12-29T08:41:19;90534.50;;;7.06;72.17
69909;BME280;57190;47.918;8.112;2022-12-29T08:43:49;90549.84;;;6.99;73.01
69909;BME280;57190;47.918;8.112;2022-12-29T08:46:15;90548.69;;;6.90;74.32
69909;BME280;57190;47.918;8.112;2022-12-29T08:48:41;90558.41;;;6.79;74.98
69909;BME280;57190;47.918;8.112;2022-12-29T08:51:06;90545.44;;;6.78;74.99
69909;BME280;57190;47.918;8.112;2022-12-29T08:53:33;90543.25;;;6.74;75.63
69909;BME280;57190;47.918;8.112;2022-12-29T08:55:59;90532.72;;;6.80;74.98
69909;BME280;57190;47.918;8.112;2022-12-29T08:58:25;90542.25;;;6.81;74.98
69909;BME280;57190;47.918;8.112;2022-12-29T09:00:56;90534.06;;;6.82;74.24
69909;BME280;57190;47.918;8.112;2022-12-29T09:03:22;90526.69;;;6.89;74.12
69909;BME280;57190;47.918;8.112;2022-12-29T09:05:49;90527.88;;;7.04;73.63
69909;BME280;57190;47.918;8.112;2022-12-29T09:08:15;90531.09;;;7.11;73.30
69909;BME280;57190;47.918;8.112;2022-12-29T09:10:40;90530.72;;;7.30;71.80
69909;BME280;57190;47.918;8.112;2022-12-29T09:13:06;90532.09;;;7.37;73.05
69909;BME280;57190;47.918;8.112;2022-12-29T09:15:32;90536.88;;;7.40;72.67
69909;BME280;57190;47.918;8.112;2022-12-29T09:17:57;90547.53;;;7.46;72.30
69909;BME280;57190;47.918;8.112;2022-12-29T09:20:22;90548.03;;;7.43;72.28
69909;BME280;57190;47.918;8.112;2022-12-29T09:22:48;90541.72;;;7.49;71.13
69909;BME280;57190;47.918;8.112;2022-12-29T09:25:14;90549.38;;;7.45;72.51
69909;BME280;57190;47.918;8.112;2022-12-29T09:27:40;90556.28;;;7.41;73.29
69909;BME280;57190;47.918;8.112;2022-12-29T09:30:07;90543.50;;;7.38;73.70
69909;BME280;57190;47.918;8.112;2022-12-29T09:32:34;90547.47;;;7.35;73.95
69909;BME280;57190;47.918;8.112;2022-12-29T09:35:00;90544.53;;;7.32;74.53
69909;BME280;57190;47.918;8.112;2022-12-29T09:37:25;90543.97;;;7.30;75.23
69909;BME280;57190;47.918;8.112;2022-12-29T09:39:51;90552.78;;;7.35;74.73
69909;BME280;57190;47.918;8.112;2022-12-29T09:45:20;90563.94;;;7.37;75.90
69909;BME280;57190;47.918;8.112;2022-12-29T09:47:51;90563.09;;;7.32;76.05
69909;BME280;57190;47.918;8.112;2022-12-29T09:50:24;90564.41;;;7.29;76.54
69909;BME280;57190;47.918;8.112;2022-12-29T09:52:58;90556.75;;;7.33;77.02
69909;BME280;57190;47.918;8.112;2022-12-29T09:55:34;90553.81;;;7.34;76.60
69909;BME280;57190;47.918;8.112;2022-12-29T10:00:52;90561.03;;;7.39;78.15
69909;BME280;57190;47.918;8.112;2022-12-29T10:03:20;90560.75;;;7.40;77.73
69909;BME280;57190;47.918;8.112;2022-12-29T10:05:56;90551.75;;;7.42;78.63
69909;BME280;57190;47.918;8.112;2022-12-29T10:10:57;90554.94;;;7.44;78.35
69909;BME280;57190;47.918;8.112;2022-12-29T10:13:40;90545.19;;;7.49;78.72
69909;BME280;57190;47.918;8.112;2022-12-29T10:16:25;90547.06;;;7.54;78.38
69909;BME280;57190;47.918;8.112;2022-12-29T10:21:33;90550.66;;;7.37;78.79
69909;BME280;57190;47.918;8.112;2022-12-29T10:24:04;90548.50;;;7.29;79.04
69909;BME280;57190;47.918;8.112;2022-12-29T10:26:38;90539.13;;;7.21;79.46
69909;BME280;57190;47.918;8.112;2022-12-29T10:29:09;90539.63;;;7.18;78.79
69909;BME280;57190;47.918;8.112;2022-12-29T10:32:04;90534.09;;;7.20;78.97
69909;BME280;57190;47.918;8.112;2022-12-29T10:37:17;90526.31;;;7.08;78.18
69909;BME280;57190;47.918;8.112;2022-12-29T10:39:52;90517.59;;;7.13;77.83
69909;BME280;57190;47.918;8.112;2022-12-29T10:44:50;90518.53;;;7.34;77.57
69909;BME280;57190;47.918;8.112;2022-12-29T10:47:22;90514.97;;;7.61;77.12
69909;BME280;57190;47.918;8.112;2022-12-29T10:49:49;90511.31;;;7.67;76.80
69909;BME280;57190;47.918;8.112;2022-12-29T10:52:16;90507.84;;;7.66;77.00
69909;BME280;57190;47.918;8.112;2022-12-29T10:54:45;90515.50;;;7.58;77.73
69909;BME280;57190;47.918;8.112;2022-12-29T10:59:50;90507.75;;;7.46;77.55
69909;BME280;57190;47.918;8.112;2022-12-29T11:08:07;90488.59;;;7.44;76.92
69909;BME280;57190;47.918;8.112;2022-12-29T11:10:39;90486.19;;;7.37;76.62
69909;BME280;57190;47.918;8.112;2022-12-29T11:13:27;90502.16;;;7.47;76.49
69909;BME280;57190;47.918;8.112;2022-12-29T11:15:53;90493.66;;;7.45;75.61
69909;BME280;57190;47.918;8.112;2022-12-29T11:18:26;90488.06;;;7.42;75.83
69909;BME280;57190;47.918;8.112;2022-12-29T11:20:57;90496.03;;;7.42;75.68
69909;BME280;57190;47.918;8.112;2022-12-29T11:23:34;90500.78;;;7.39;76.13
69909;BME280;57190;47.918;8.112;2022-12-29T11:26:14;90487.56;;;7.45;76.99
69909;BME280;57190;47.918;8.112;2022-12-29T11:28:42;90489.66;;;7.43;76.07
69909;BME280;57190;47.918;8.112;2022-12-29T11:31:09;90502.44;;;7.51;75.81
69909;BME280;57190;47.918;8.112;2022-12-29T11:33:36;90498.56;;;7.69;74.90
69909;BME280;57190;47.918;8.112;2022-12-29T11:36:20;90471.28;;;7.84;74.19
69909;BME280;57190;47.918;8.112;2022-12-29T11:38:54;90482.78;;;8.05;74.09
69909;BME280;57190;47.918;8.112;2022-12-29T11:41:27;90475.63;;;8.06;74.00
69909;BME280;57190;47.918;8.112;2022-12-29T11:43:56;90467.66;;;8.06;73.98
69909;BME280;57190;47.918;8.112;2022-12-29T11:46:32;90485.88;;;7.86;72.87
69909;BME280;57190;47.918;8.112;2022-12-29T11:48:59;90486.94;;;7.80;73.43
69909;BME280;57190;47.918;8.112;2022-12-29T11:51:52;90494.06;;;7.69;74.20
69909;BME280;57190;47.918;8.112;2022-12-29T11:54:25;90489.06;;;7.83;74.26
69909;BME280;57190;47.918;8.112;2022-12-29T11:56:53;90478.47;;;7.89;74.82
69909;BME280;57190;47.918;8.112;2022-12-29T12:02:00;90474.44;;;7.76;75.00
69909;BME280;57190;47.918;8.112;2022-12-29T12:04:36;90481.03;;;7.68;75.19
69909;BME280;57190;47.918;8.112;2022-12-29T12:07:23;90478.66;;;7.71;76.38
69909;BME280;57190;47.918;8.112;2022-12-29T12:09:58;90478.69;;;7.77;76.09
69909;BME280;57190;47.918;8.112;2022-12-29T12:12:44;90460.31;;;7.70;76.14
69909;BME280;57190;47.918;8.112;2022-12-29T12:15:17;90467.78;;;7.78;75.28
69909;BME280;57190;47.918;8.112;2022-12-29T12:18:09;90476.53;;;7.74;75.26
69909;BME280;57190;47.918;8.112;2022-12-29T12:25:39;90462.69;;;7.61;74.98
69909;BME280;57190;47.918;8.112;2022-12-29T12:28:19;90456.06;;;7.64;74.97
69909;BME280;57190;47.918;8.112;2022-12-29T12:30:48;90464.53;;;7.55;74.65
69909;BME280;57190;47.918;8.112;2022-12-29T12:33:27;90468.25;;;7.60;75.11
69909;BME280;57190;47.918;8.112;2022-12-29T12:39:11;90441.72;;;7.65;75.60
69909;BME280;57190;47.918;8.112;2022-12-29T13:22:11;90404.41;;;8.02;70.62
69909;BME280;57190;47.918;8.112;2022-12-29T13:27:17;90409.44;;;8.04;69.86
69909;BME280;57190;47.918;8.112;2022-12-29T13:30:14;90418.75;;;8.01;70.24
69909;BME280;57190;47.918;8.112;2022-12-29T13:37:56;90413.16;;;7.98;72.30
69909;BME280;57190;47.918;8.112;2022-12-29T13:40:26;90414.19;;;7.86;72.00
69909;BME280;57190;47.918;8.112;2022-12-29T13:42:55;90411.75;;;7.75;73.59
69909;BME280;57190;47.918;8.112;2022-12-29T13:45:24;90406.41;;;7.64;73.87
69909;BME280;57190;47.918;8.112;2022-12-29T13:48:02;90406.69;;;7.63;74.26
69909;BME280;57190;47.918;8.112;2022-12-29T13:50:35;90397.41;;;7.65;73.68
69909;BME280;57190;47.918;8.112;2022-12-29T13:53:13;90411.47;;;7.66;73.39
69909;BME280;57190;47.918;8.112;2022-12-29T13:56:14;90417.03;;;7.64;74.08
69909;BME280;57190;47.918;8.112;2022-12-29T14:01:09;90427.13;;;7.67;73.75
69909;BME280;57190;47.918;8.112;2022-12-29T14:08:44;90427.63;;;7.59;74.17
69909;BME280;57190;47.918;8.112;2022-12-29T14:11:11;90423.09;;;7.49;75.26
69909;BME280;57190;47.918;8.112;2022-12-29T14:13:41;90423.88;;;7.45;76.18
69909;BME280;57190;47.918;8.112;2022-12-29T14:16:21;90437.06;;;7.34;77.00
69909;BME280;57190;47.918;8.112;2022-12-29T14:18:50;90429.34;;;7.28;77.33
69909;BME280;57190;47.918;8.112;2022-12-29T14:23:46;90435.66;;;7.16;77.51
69909;BME280;57190;47.918;8.112;2022-12-29T14:28:56;90439.94;;;7.22;76.94
69909;BME280;57190;47.918;8.112;2022-12-29T14:36:41;90450.03;;;7.26;76.34
69909;BME280;57190;47.918;8.112;2022-12-29T14:39:36;90454.88;;;7.34;74.18
69909;BME280;57190;47.918;8.112;2022-12-29T14:42:12;90457.53;;;7.34;74.78
69909;BME280;57190;47.918;8.112;2022-12-29T14:47:36;90458.38;;;7.45;74.14
69909;BME280;57190;47.918;8.112;2022-12-29T14:50:42;90463.91;;;7.43;73.98
69909;BME280;57190;47.918;8.112;2022-12-29T14:53:43;90449.84;;;7.43;72.42
69909;BME280;57190;47.918;8.112;2022-12-29T14:56:11;90446.66;;;7.40;73.37
69909;BME280;57190;47.918;8.112;2022-12-29T14:59:01;90450.63;;;7.43;72.70
69909;BME280;57190;47.918;8.112;2022-12-29T15:01:44;90456.47;;;7.40;73.16
69909;BME280;57190;47.918;8.112;2022-12-29T15:04:24;90461.81;;;7.45;72.42
69909;BME280;57190;47.918;8.112;2022-12-29T15:06:50;90458.88;;;7.42;72.69
69909;BME280;57190;47.918;8.112;2022-12-29T15:11:52;90449.84;;;7.37;72.78
69909;BME280;57190;47.918;8.112;2022-12-29T15:14:38;90471.59;;;7.39;72.74
69909;BME280;57190;47.918;8.112;2022-12-29T15:17:25;90455.94;;;7.38;73.34
69909;BME280;57190;47.918;8.112;2022-12-29T15:19:51;90470.75;;;7.29;74.56
69909;BME280;57190;47.918;8.112;2022-12-29T15:22:17;90469.41;;;7.26;74.81
69909;BME280;57190;47.918;8.112;2022-12-29T15:24:43;90455.50;;;7.08;75.78
69909;BME280;57190;47.918;8.112;2022-12-29T15:27:17;90476.72;;;7.08;74.94
69909;BME280;57190;47.918;8.112;2022-12-29T15:29:45;90465.06;;;7.10;75.08
69909;BME280;57190;47.918;8.112;2022-12-29T15:32:27;90475.66;;;7.04;74.69
69909;BME280;57190;47.918;8.112;2022-12-29T15:34:58;90472.47;;;7.07;74.74
69909;BME280;57190;47.918;8.112;2022-12-29T15:37:33;90454.44;;;7.10;74.13
69909;BME280;57190;47.918;8.112;2022-12-29T15:39:59;90462.97;;;7.12;74.11
69909;BME280;57190;47.918;8.112;2022-12-29T15:44:55;90455.03;;;7.17;72.93
69909;BME280;57190;47.918;8.112;2022-12-29T15:47:22;90447.81;;;7.12;72.99
69909;BME280;57190;47.918;8.112;2022-12-29T15:49:52;90453.69;;;7.14;73.16